Time;durP1;ratioP1;P1;durP2;ratioP2;P2;SDS_P1;SDS_P2;PMS_P1;PMS_P2;Temp;Humidity;BMP_temperature;BMP_pressure;BME280_temperature;BME280_humidity;BME280_pressure;Samples;Min_cycle;Max_cycle;Signal;HPM_P1;HPM_P2
2022/11/12 00:00:15;;;;;;;;;;;21.10;54.50;;;;;;5052912;28;19913;-73
2022/11/12 00:02:40;;;;;;;;;;;21.10;54.50;;;;;;5023884;28;20419;-74
2022/11/12 00:05:06;;;;;;;;;;;21.00;54.50;;;;;;5034972;28;19921;-74
2022/11/12 00:07:31;;;;;;;;;;;21.00;54.50;;;;;;5031006;28;20003;-74
2022/11/12 00:09:57;;;;;;;;;;;21.00;54.50;;;;;;5051276;28;20020;-73
2022/11/12 00:12:22;;;;;;;;;;;20.90;54.30;;;;;;5052973;28;20368;-73
2022/11/12 00:14:47;;;;;;;;;;;20.90;54.40;;;;;;5034676;28;20361;-72
2022/11/12 00:17:13;;;;;;;;;;;20.90;54.30;;;;;;5053078;28;20521;-73
2022/11/12 00:19:38;;;;;;;;;;;20.90;54.30;;;;;;5042496;28;19943;-74
2022/11/12 00:22:04;;;;;;;;;;;20.90;54.20;;;;;;5015810;28;19936;-73
2022/11/12 00:24:29;;;;;;;;;;;20.80;54.10;;;;;;5047641;28;20043;-72
2022/11/12 00:26:55;;;;;;;;;;;20.90;54.10;;;;;;5053249;28;19916;-74
2022/11/12 00:29:20;;;;;;;;;;;20.80;54.10;;;;;;5034487;28;19920;-72
2022/11/12 00:31:45;;;;;;;;;;;20.90;54.10;;;;;;5033610;28;20744;-73
2022/11/12 00:34:11;;;;;;;;;;;20.90;54.10;;;;;;5034962;28;20355;-73
2022/11/12 00:36:36;;;;;;;;;;;20.90;54.10;;;;;;5050691;28;19925;-73
2022/11/12 00:39:02;;;;;;;;;;;20.90;54.00;;;;;;5043223;28;19948;-74
2022/11/12 00:41:28;;;;;;;;;;;20.90;54.00;;;;;;5035582;28;20002;-74
2022/11/12 00:43:53;;;;;;;;;;;20.90;54.00;;;;;;5052241;28;19931;-73
2022/11/12 00:46:19;;;;;;;;;;;20.90;53.90;;;;;;5053671;28;20003;-73
2022/11/12 00:48:44;;;;;;;;;;;20.90;54.00;;;;;;5034693;28;19919;-73
2022/11/12 00:51:09;;;;;;;;;;;20.90;54.00;;;;;;5053427;28;19913;-73
2022/11/12 00:53:35;;;;;;;;;;;20.90;53.80;;;;;;5032864;28;20282;-73
2022/11/12 00:56:04;;;;;;;;;;;20.90;53.90;;;;;;5053361;28;19932;-74
2022/11/12 00:58:30;;;;;;;;;;;20.90;53.80;;;;;;5051257;28;19913;-73
2022/11/12 01:00:55;;;;;;;;;;;20.80;53.80;;;;;;5052428;28;20228;-73
2022/11/12 01:03:21;;;;;;;;;;;20.80;54.00;;;;;;5035625;28;19909;-73
2022/11/12 01:05:46;;;;;;;;;;;20.70;53.80;;;;;;5035009;28;19909;-73
2022/11/12 01:08:11;;;;;;;;;;;20.70;53.80;;;;;;5051850;28;19948;-74
2022/11/12 01:10:37;;;;;;;;;;;20.70;53.80;;;;;;5050647;28;19916;-73
2022/11/12 01:13:02;;;;;;;;;;;20.70;53.80;;;;;;5034575;28;19908;-74
2022/11/12 01:15:28;;;;;;;;;;;20.70;53.70;;;;;;5028080;28;19913;-73
2022/11/12 01:17:53;;;;;;;;;;;20.60;53.70;;;;;;5041467;28;19913;-73
2022/11/12 01:20:19;;;;;;;;;;;20.70;53.60;;;;;;5041552;28;19912;-73
2022/11/12 01:22:44;;;;;;;;;;;20.70;53.60;;;;;;5053065;28;20408;-72
2022/11/12 01:25:09;;;;;;;;;;;20.70;53.70;;;;;;5032566;28;20398;-73
2022/11/12 01:27:35;;;;;;;;;;;20.70;53.50;;;;;;5048808;28;20354;-73
2022/11/12 01:30:01;;;;;;;;;;;20.70;53.50;;;;;;5050134;28;19963;-73
2022/11/12 01:32:27;;;;;;;;;;;20.70;53.50;;;;;;5034627;28;19909;-73
2022/11/12 01:34:52;;;;;;;;;;;20.60;53.50;;;;;;5034580;28;19955;-73
2022/11/12 01:37:18;;;;;;;;;;;20.60;53.50;;;;;;5030625;28;19921;-73
2022/11/12 01:39:43;;;;;;;;;;;20.60;53.60;;;;;;5046728;28;19941;-74
2022/11/12 01:42:09;;;;;;;;;;;20.60;53.50;;;;;;5031203;28;20506;-74
2022/11/12 01:44:34;;;;;;;;;;;20.60;53.50;;;;;;5022550;28;20357;-73
2022/11/12 01:47:10;;;;;;;;;;;20.60;53.50;;;;;;5024667;28;20376;-73
2022/11/12 01:49:38;;;;;;;;;;;20.50;53.50;;;;;;5014076;28;19963;-73
2022/11/12 01:52:23;;;;;;;;;;;20.50;53.40;;;;;;5022912;28;20374;-73
2022/11/12 01:54:50;;;;;;;;;;;20.50;53.30;;;;;;5033555;28;19923;-73
2022/11/12 01:57:16;;;;;;;;;;;20.50;53.20;;;;;;5034158;28;19920;-72
2022/11/12 01:59:42;;;;;;;;;;;20.60;53.30;;;;;;5034058;28;19909;-73
2022/11/12 02:02:08;;;;;;;;;;;20.60;53.20;;;;;;5047777;28;19913;-74
2022/11/12 02:04:33;;;;;;;;;;;20.60;53.20;;;;;;5034579;28;19913;-73
2022/11/12 02:06:59;;;;;;;;;;;20.60;53.20;;;;;;5046837;28;19924;-73
2022/11/12 02:09:24;;;;;;;;;;;20.60;53.20;;;;;;5018551;28;20000;-73
2022/11/12 02:11:50;;;;;;;;;;;20.60;53.10;;;;;;5033923;28;19909;-73
2022/11/12 02:14:15;;;;;;;;;;;20.60;53.20;;;;;;5017074;28;19923;-73
2022/11/12 02:16:42;;;;;;;;;;;20.60;53.10;;;;;;5034614;28;19951;-73
2022/11/12 02:19:08;;;;;;;;;;;20.60;53.20;;;;;;5042095;28;19920;-74
2022/11/12 02:21:34;;;;;;;;;;;20.60;53.20;;;;;;5021111;28;20292;-73
2022/11/12 02:24:01;;;;;;;;;;;20.60;53.20;;;;;;5035206;28;19913;-73
2022/11/12 02:26:27;;;;;;;;;;;20.50;53.30;;;;;;5034257;28;19917;-73
2022/11/12 02:28:52;;;;;;;;;;;20.50;53.40;;;;;;5051217;28;19912;-73
2022/11/12 02:31:18;;;;;;;;;;;20.50;53.40;;;;;;5051022;28;20015;-73
2022/11/12 02:33:43;;;;;;;;;;;20.50;53.40;;;;;;5051938;28;20026;-73
2022/11/12 02:36:09;;;;;;;;;;;20.60;53.40;;;;;;5031483;28;20011;-74
2022/11/12 02:38:34;;;;;;;;;;;20.70;53.10;;;;;;5045663;28;19912;-74
2022/11/12 02:41:00;;;;;;;;;;;20.70;52.90;;;;;;5051701;28;19909;-74
2022/11/12 02:43:25;;;;;;;;;;;20.80;52.80;;;;;;5051572;28;19913;-73
2022/11/12 02:45:51;;;;;;;;;;;20.90;52.60;;;;;;5034413;28;20258;-74
2022/11/12 02:48:16;;;;;;;;;;;20.90;52.40;;;;;;5054657;28;19948;-74
2022/11/12 02:50:41;;;;;;;;;;;21.00;52.30;;;;;;5053184;28;19942;-74
2022/11/12 02:53:07;;;;;;;;;;;21.00;52.10;;;;;;5046849;28;19970;-73
2022/11/12 02:55:32;;;;;;;;;;;21.00;52.00;;;;;;5054925;28;20388;-74
2022/11/12 02:57:58;;;;;;;;;;;21.00;51.90;;;;;;5053992;28;19912;-74
2022/11/12 03:00:23;;;;;;;;;;;21.00;51.80;;;;;;5037514;28;19952;-74
2022/11/12 03:02:57;;;;;;;;;;;21.00;51.60;;;;;;5055664;28;19917;-72
2022/11/12 03:05:23;;;;;;;;;;;21.00;51.50;;;;;;5036089;28;20386;-73
2022/11/12 03:07:49;;;;;;;;;;;21.00;51.40;;;;;;5025289;28;20012;-74
2022/11/12 03:10:14;;;;;;;;;;;21.10;51.40;;;;;;5026399;28;19917;-73
2022/11/12 03:12:40;;;;;;;;;;;21.00;51.30;;;;;;5033971;28;19917;-73
2022/11/12 03:15:05;;;;;;;;;;;21.00;51.30;;;;;;5032095;28;19917;-74
2022/11/12 03:17:32;;;;;;;;;;;21.00;51.30;;;;;;5021007;28;20383;-74
2022/11/12 03:19:58;;;;;;;;;;;21.00;51.30;;;;;;5053110;28;19913;-73
2022/11/12 03:22:23;;;;;;;;;;;20.90;51.20;;;;;;5037604;28;20349;-73
2022/11/12 03:24:49;;;;;;;;;;;20.90;51.20;;;;;;5016536;28;19940;-74
2022/11/12 03:27:14;;;;;;;;;;;20.80;51.20;;;;;;5014687;28;19983;-74
2022/11/12 03:29:39;;;;;;;;;;;20.80;51.30;;;;;;5034310;28;19925;-73
2022/11/12 03:32:05;;;;;;;;;;;20.70;51.40;;;;;;5035409;28;19917;-73
2022/11/12 03:34:30;;;;;;;;;;;20.70;51.40;;;;;;5018991;28;19968;-73
2022/11/12 03:36:56;;;;;;;;;;;20.70;51.40;;;;;;5029327;28;20284;-73
2022/11/12 03:39:21;;;;;;;;;;;20.70;51.40;;;;;;5049942;28;19920;-73
2022/11/12 03:41:47;;;;;;;;;;;20.60;51.40;;;;;;5053754;28;19913;-74
2022/11/12 03:44:12;;;;;;;;;;;20.60;51.50;;;;;;5051163;28;19971;-73
2022/11/12 03:46:38;;;;;;;;;;;20.60;51.60;;;;;;5018501;28;19924;-73
2022/11/12 03:49:03;;;;;;;;;;;20.60;52.20;;;;;;5049378;28;19917;-73
2022/11/12 03:51:28;;;;;;;;;;;20.50;51.60;;;;;;5053297;28;19916;-74
2022/11/12 03:53:54;;;;;;;;;;;20.50;51.60;;;;;;5053455;28;20015;-73
2022/11/12 03:56:19;;;;;;;;;;;20.50;51.60;;;;;;5053271;28;20356;-73
2022/11/12 03:58:45;;;;;;;;;;;20.50;51.60;;;;;;5050862;28;20344;-73
2022/11/12 04:01:10;;;;;;;;;;;20.40;51.60;;;;;;5035615;28;19919;-72
2022/11/12 04:03:36;;;;;;;;;;;20.40;51.60;;;;;;5052475;28;19916;-73
2022/11/12 04:08:45;;;;;;;;;;;20.40;51.40;;;;;;5042646;28;20026;-73
2022/11/12 04:11:11;;;;;;;;;;;20.50;51.50;;;;;;5048035;28;19917;-74
2022/11/12 04:13:37;;;;;;;;;;;20.50;51.30;;;;;;5051511;28;19966;-74
2022/11/12 04:21:50;;;;;;;;;;;20.70;50.90;;;;;;5039972;28;20281;-74
2022/11/12 04:27:00;;;;;;;;;;;20.80;50.50;;;;;;5018765;28;19955;-74
2022/11/12 04:32:14;;;;;;;;;;;20.80;50.40;;;;;;5028187;28;19940;-73
2022/11/12 04:34:40;;;;;;;;;;;20.80;50.50;;;;;;5025985;28;19917;-74
2022/11/12 04:37:05;;;;;;;;;;;20.80;50.40;;;;;;5041297;28;19925;-74
2022/11/12 04:39:31;;;;;;;;;;;20.80;50.40;;;;;;5034374;28;19912;-74
2022/11/12 04:47:21;;;;;;;;;;;20.70;50.20;;;;;;5059661;28;19913;-73
2022/11/12 04:49:46;;;;;;;;;;;20.70;50.20;;;;;;5052413;28;20506;-74
2022/11/12 04:52:12;;;;;;;;;;;20.70;50.20;;;;;;5034095;28;20335;-72
2022/11/12 04:54:37;;;;;;;;;;;20.70;50.20;;;;;;5023744;28;19913;-73
2022/11/12 04:57:02;;;;;;;;;;;20.70;50.20;;;;;;5050914;28;19912;-73
2022/11/12 04:59:28;;;;;;;;;;;20.70;50.20;;;;;;5052098;28;19924;-73
2022/11/12 05:01:53;;;;;;;;;;;20.70;50.10;;;;;;5052174;28;19923;-73
2022/11/12 05:04:19;;;;;;;;;;;20.80;50.20;;;;;;5035629;28;19912;-73
2022/11/12 05:06:50;;;;;;;;;;;20.70;50.00;;;;;;5047487;28;19913;-73
2022/11/12 05:09:16;;;;;;;;;;;20.70;50.10;;;;;;5018318;28;19908;-73
2022/11/12 05:11:41;;;;;;;;;;;20.70;50.20;;;;;;5035470;28;19909;-73
2022/11/12 05:14:07;;;;;;;;;;;20.60;50.30;;;;;;5033694;28;19912;-72
2022/11/12 05:16:32;;;;;;;;;;;20.60;50.30;;;;;;5052399;28;19913;-73
2022/11/12 05:18:58;;;;;;;;;;;20.60;50.30;;;;;;5052893;28;19948;-73
2022/11/12 05:24:07;;;;;;;;;;;20.60;50.30;;;;;;5052985;28;20015;-73
2022/11/12 05:26:33;;;;;;;;;;;20.60;50.30;;;;;;5029678;28;19921;-74
2022/11/12 05:28:58;;;;;;;;;;;20.60;50.30;;;;;;5050518;28;19923;-73
2022/11/12 05:31:23;;;;;;;;;;;20.60;50.40;;;;;;5051729;28;19927;-73
2022/11/12 05:33:49;;;;;;;;;;;20.50;50.40;;;;;;5052553;28;20430;-72
2022/11/12 05:36:14;;;;;;;;;;;20.50;50.40;;;;;;5041710;28;20406;-73
2022/11/12 05:38:40;;;;;;;;;;;20.50;50.40;;;;;;5050076;28;19917;-73
2022/11/12 05:41:05;;;;;;;;;;;20.50;51.10;;;;;;5034877;28;19916;-73
2022/11/12 05:43:31;;;;;;;;;;;20.50;50.60;;;;;;5049156;28;19909;-73
2022/11/12 05:45:56;;;;;;;;;;;20.40;50.60;;;;;;5051375;28;19952;-73
2022/11/12 05:48:22;;;;;;;;;;;20.40;50.60;;;;;;5033630;28;20381;-73
2022/11/12 05:50:50;;;;;;;;;;;20.50;50.70;;;;;;5050316;28;20343;-73
2022/11/12 05:53:16;;;;;;;;;;;20.40;50.60;;;;;;5049250;28;20157;-73
2022/11/12 05:55:41;;;;;;;;;;;20.50;50.60;;;;;;5033693;28;19913;-73
2022/11/12 05:58:07;;;;;;;;;;;20.50;50.60;;;;;;5032987;28;19908;-73
2022/11/12 06:00:37;;;;;;;;;;;20.50;50.70;;;;;;5033175;28;19966;-74
2022/11/12 06:03:06;;;;;;;;;;;20.50;50.70;;;;;;5039611;28;19909;-73
2022/11/12 06:05:32;;;;;;;;;;;20.40;50.60;;;;;;5034478;28;20039;-72
2022/11/12 06:07:57;;;;;;;;;;;20.50;50.70;;;;;;5024299;28;20395;-72
2022/11/12 06:10:23;;;;;;;;;;;20.40;50.60;;;;;;5034294;28;19956;-73
2022/11/12 06:12:48;;;;;;;;;;;20.40;50.60;;;;;;5034074;28;19913;-73
2022/11/12 06:15:14;;;;;;;;;;;20.40;50.60;;;;;;5033970;28;19913;-71
2022/11/12 06:17:39;;;;;;;;;;;20.50;50.70;;;;;;5028067;28;19921;-73
2022/11/12 06:20:05;;;;;;;;;;;20.50;50.60;;;;;;5026378;28;19976;-73
2022/11/12 06:22:30;;;;;;;;;;;20.50;50.70;;;;;;5024597;28;19967;-73
2022/11/12 06:24:56;;;;;;;;;;;20.50;50.60;;;;;;5054243;28;20003;-74
2022/11/12 06:27:22;;;;;;;;;;;20.50;50.50;;;;;;5036971;28;19953;-73
2022/11/12 06:29:48;;;;;;;;;;;20.40;50.50;;;;;;5020590;28;20348;-74
2022/11/12 06:32:13;;;;;;;;;;;20.40;50.40;;;;;;5036283;28;20007;-72
2022/11/12 06:34:39;;;;;;;;;;;20.40;50.40;;;;;;5037208;28;19917;-73
2022/11/12 06:37:04;;;;;;;;;;;20.40;50.40;;;;;;5052776;28;20012;-73
2022/11/12 06:39:30;;;;;;;;;;;20.40;50.50;;;;;;5036388;28;19913;-73
2022/11/12 06:41:55;;;;;;;;;;;20.40;50.50;;;;;;5054353;28;19928;-73
2022/11/12 06:44:21;;;;;;;;;;;20.40;50.50;;;;;;5053642;28;19913;-72
2022/11/12 06:46:46;;;;;;;;;;;20.40;50.40;;;;;;5037435;28;19991;-73
2022/11/12 06:49:11;;;;;;;;;;;20.40;50.40;;;;;;5049214;28;20004;-73
2022/11/12 06:51:38;;;;;;;;;;;20.40;50.30;;;;;;5044006;28;19920;-73
2022/11/12 06:54:04;;;;;;;;;;;20.40;50.30;;;;;;5045285;28;20361;-73
2022/11/12 06:56:29;;;;;;;;;;;20.40;50.30;;;;;;5041351;28;19995;-74
2022/11/12 06:58:55;;;;;;;;;;;20.40;50.20;;;;;;5054084;28;20292;-73
2022/11/12 07:01:22;;;;;;;;;;;20.40;50.20;;;;;;5053805;28;20284;-73
2022/11/12 07:03:49;;;;;;;;;;;20.30;50.20;;;;;;5054106;28;20012;-73
2022/11/12 07:06:17;;;;;;;;;;;20.30;50.20;;;;;;5036189;28;20050;-73
2022/11/12 07:08:43;;;;;;;;;;;20.30;50.20;;;;;;5041374;28;19913;-73
2022/11/12 07:11:08;;;;;;;;;;;20.30;50.10;;;;;;5055464;28;20391;-72
2022/11/12 07:13:34;;;;;;;;;;;20.20;50.00;;;;;;5033177;28;19917;-73
2022/11/12 07:16:00;;;;;;;;;;;20.20;50.00;;;;;;5033573;28;20355;-72
2022/11/12 07:18:26;;;;;;;;;;;20.20;50.00;;;;;;5035943;28;19913;-73
2022/11/12 07:20:59;;;;;;;;;;;20.10;49.90;;;;;;5036593;28;19947;-72
2022/11/12 07:23:24;;;;;;;;;;;20.10;49.90;;;;;;5052449;28;19923;-73
2022/11/12 07:26:00;;;;;;;;;;;20.10;49.90;;;;;;5036676;28;20280;-73
2022/11/12 07:28:26;;;;;;;;;;;20.10;49.80;;;;;;5051481;28;19966;-73
2022/11/12 07:30:58;;;;;;;;;;;20.10;49.80;;;;;;5042191;28;19916;-73
2022/11/12 07:33:24;;;;;;;;;;;20.10;49.80;;;;;;5035093;28;19991;-73
2022/11/12 07:35:55;;;;;;;;;;;20.10;49.80;;;;;;5019113;28;20316;-73
2022/11/12 07:38:20;;;;;;;;;;;20.20;49.70;;;;;;5053232;28;20010;-72
2022/11/12 07:40:46;;;;;;;;;;;20.20;49.70;;;;;;5053579;28;19971;-72
2022/11/12 07:43:11;;;;;;;;;;;20.10;49.60;;;;;;5054501;28;19916;-73
2022/11/12 07:45:37;;;;;;;;;;;20.10;49.60;;;;;;5052882;28;19916;-73
2022/11/12 07:48:02;;;;;;;;;;;20.10;49.60;;;;;;5054529;28;20003;-73
2022/11/12 07:50:28;;;;;;;;;;;20.20;49.60;;;;;;5036340;28;20387;-73
2022/11/12 07:52:53;;;;;;;;;;;20.20;49.50;;;;;;5035160;28;19917;-73
2022/11/12 07:55:19;;;;;;;;;;;20.30;49.50;;;;;;5036898;28;19963;-73
2022/11/12 07:57:44;;;;;;;;;;;20.30;49.40;;;;;;5051174;28;19962;-74
2022/11/12 08:00:11;;;;;;;;;;;20.30;49.40;;;;;;5040017;28;20000;-73
2022/11/12 08:02:36;;;;;;;;;;;20.30;49.50;;;;;;5051907;28;20032;-73
2022/11/12 08:05:02;;;;;;;;;;;20.30;49.40;;;;;;5035452;28;19996;-73
2022/11/12 08:07:27;;;;;;;;;;;20.20;49.30;;;;;;5032467;28;19912;-73
2022/11/12 08:09:53;;;;;;;;;;;20.20;49.30;;;;;;5034476;28;19966;-74
2022/11/12 08:12:18;;;;;;;;;;;20.20;49.30;;;;;;5032823;28;20292;-73
2022/11/12 08:14:44;;;;;;;;;;;20.20;49.40;;;;;;5045916;28;20008;-73
2022/11/12 08:17:10;;;;;;;;;;;20.20;49.50;;;;;;5025283;28;19919;-73
2022/11/12 08:19:35;;;;;;;;;;;20.10;49.50;;;;;;5049762;28;19913;-73
2022/11/12 08:22:01;;;;;;;;;;;20.10;49.60;;;;;;5053009;28;20407;-73
2022/11/12 08:24:26;;;;;;;;;;;20.10;49.60;;;;;;5051258;28;20384;-73
2022/11/12 08:26:51;;;;;;;;;;;20.10;49.50;;;;;;5051558;28;19921;-74
2022/11/12 08:29:17;;;;;;;;;;;20.10;49.50;;;;;;5050902;28;20384;-73
2022/11/12 08:31:44;;;;;;;;;;;20.10;49.40;;;;;;5028457;28;19998;-73
2022/11/12 08:34:12;;;;;;;;;;;20.10;49.20;;;;;;5034946;28;20007;-72
2022/11/12 08:36:39;;;;;;;;;;;20.20;49.20;;;;;;5031361;28;20301;-73
2022/11/12 08:39:04;;;;;;;;;;;20.20;49.10;;;;;;5030903;28;19963;-74
2022/11/12 08:41:30;;;;;;;;;;;20.30;49.10;;;;;;5031830;28;19909;-73
2022/11/12 08:43:56;;;;;;;;;;;20.30;49.10;;;;;;5030311;28;21206;-74
2022/11/12 08:46:22;;;;;;;;;;;20.40;49.10;;;;;;5029288;28;19945;-73
2022/11/12 08:48:47;;;;;;;;;;;20.30;49.00;;;;;;5031103;28;19917;-74
2022/11/12 08:51:13;;;;;;;;;;;20.40;49.00;;;;;;5027619;28;19917;-73
2022/11/12 08:53:38;;;;;;;;;;;20.40;48.90;;;;;;5028634;28;19913;-73
2022/11/12 08:56:04;;;;;;;;;;;20.40;48.80;;;;;;5032770;28;19952;-73
2022/11/12 08:58:29;;;;;;;;;;;20.40;48.70;;;;;;5031114;28;19979;-72
2022/11/12 09:00:55;;;;;;;;;;;20.40;48.60;;;;;;5031337;28;19951;-74
2022/11/12 09:03:21;;;;;;;;;;;20.40;48.50;;;;;;5030692;28;19920;-72
2022/11/12 09:05:47;;;;;;;;;;;20.40;48.50;;;;;;5032314;28;19917;-74
2022/11/12 09:08:13;;;;;;;;;;;20.40;48.40;;;;;;5030254;28;19975;-74
2022/11/12 09:10:38;;;;;;;;;;;20.40;48.30;;;;;;5026210;28;20373;-73
2022/11/12 09:13:04;;;;;;;;;;;20.40;48.30;;;;;;5027630;28;19943;-73
2022/11/12 09:15:29;;;;;;;;;;;20.40;48.30;;;;;;5025500;28;20352;-73
2022/11/12 09:17:59;;;;;;;;;;;20.40;48.30;;;;;;5022257;28;19959;-74
2022/11/12 09:20:24;;;;;;;;;;;20.50;48.30;;;;;;5021504;28;19918;-73
2022/11/12 09:22:50;;;;;;;;;;;20.50;48.30;;;;;;5027438;28;19916;-73
2022/11/12 09:25:15;;;;;;;;;;;20.50;48.30;;;;;;5032914;28;19913;-73
2022/11/12 09:27:41;;;;;;;;;;;20.40;48.20;;;;;;5025350;28;20028;-73
2022/11/12 09:30:06;;;;;;;;;;;20.40;48.30;;;;;;5026955;28;19921;-73
2022/11/12 09:32:32;;;;;;;;;;;20.40;48.30;;;;;;5033046;28;19956;-73
2022/11/12 09:34:58;;;;;;;;;;;20.40;48.30;;;;;;5031487;28;19909;-72
2022/11/12 09:37:23;;;;;;;;;;;20.50;48.30;;;;;;5029198;28;20385;-73
2022/11/12 09:39:48;;;;;;;;;;;20.50;48.30;;;;;;5032663;28;19978;-73
2022/11/12 09:42:15;;;;;;;;;;;20.50;48.30;;;;;;5031317;28;19939;-73
2022/11/12 09:44:43;;;;;;;;;;;20.50;48.30;;;;;;5027915;28;21299;-73
2022/11/12 09:47:12;;;;;;;;;;;20.50;48.30;;;;;;5027343;28;19921;-73
2022/11/12 09:49:39;;;;;;;;;;;20.50;48.40;;;;;;5029906;28;19921;-73
2022/11/12 09:52:09;;;;;;;;;;;20.50;48.50;;;;;;5030381;28;19913;-74
2022/11/12 09:54:34;;;;;;;;;;;20.40;48.50;;;;;;5031170;28;19917;-73
2022/11/12 09:57:00;;;;;;;;;;;20.50;48.60;;;;;;5029998;28;19919;-74
2022/11/12 09:59:27;;;;;;;;;;;20.50;48.70;;;;;;5029558;28;19944;-73
2022/11/12 10:02:15;;;;;;;;;;;20.50;48.70;;;;;;5029232;28;20365;-73
2022/11/12 10:04:48;;;;;;;;;;;20.40;48.70;;;;;;5017518;28;20370;-74
2022/11/12 10:07:26;;;;;;;;;;;20.40;48.70;;;;;;5027440;28;20289;-72
2022/11/12 10:09:58;;;;;;;;;;;20.40;48.70;;;;;;5030445;28;19919;-73
2022/11/12 10:12:43;;;;;;;;;;;20.40;48.70;;;;;;5026929;28;19913;-73
2022/11/12 10:18:02;;;;;;;;;;;20.40;48.90;;;;;;5029661;28;19971;-73
2022/11/12 10:20:29;;;;;;;;;;;20.30;48.90;;;;;;5021618;28;19964;-73
2022/11/12 10:22:54;;;;;;;;;;;20.30;49.00;;;;;;5012233;28;19991;-73
2022/11/12 10:25:20;;;;;;;;;;;20.40;49.10;;;;;;5035759;28;20377;-73
2022/11/12 10:27:45;;;;;;;;;;;20.30;49.00;;;;;;5031928;28;19959;-74
2022/11/12 10:30:18;;;;;;;;;;;20.30;49.00;;;;;;5028942;28;19928;-73
2022/11/12 10:32:44;;;;;;;;;;;20.40;49.00;;;;;;5031064;28;19915;-73
2022/11/12 10:35:10;;;;;;;;;;;20.40;49.00;;;;;;5028000;28;20303;-73
2022/11/12 10:37:51;;;;;;;;;;;20.40;48.90;;;;;;5030756;28;20001;-73
2022/11/12 10:40:19;;;;;;;;;;;20.40;48.90;;;;;;5028714;28;20284;-74
2022/11/12 10:42:58;;;;;;;;;;;20.40;48.80;;;;;;5017911;28;19914;-74
2022/11/12 10:45:23;;;;;;;;;;;20.40;48.90;;;;;;5020434;28;19951;-73
2022/11/12 10:47:49;;;;;;;;;;;20.40;48.90;;;;;;5029273;28;19961;-73
2022/11/12 10:50:37;;;;;;;;;;;20.40;48.90;;;;;;5026914;28;19928;-74
2022/11/12 10:53:04;;;;;;;;;;;20.40;48.80;;;;;;5016022;28;19917;-73
2022/11/12 10:55:30;;;;;;;;;;;20.50;48.90;;;;;;5026703;28;19924;-73
2022/11/12 10:58:02;;;;;;;;;;;20.50;49.20;;;;;;5020339;28;19971;-74
2022/11/12 11:00:27;;;;;;;;;;;20.50;49.00;;;;;;5025309;28;20011;-74
2022/11/12 11:02:52;;;;;;;;;;;20.60;48.90;;;;;;5028791;28;20000;-74
2022/11/12 11:05:28;;;;;;;;;;;20.60;48.90;;;;;;5028391;28;19913;-73
2022/11/12 11:07:53;;;;;;;;;;;20.60;48.90;;;;;;5034283;28;20443;-73
2022/11/12 11:10:23;;;;;;;;;;;20.60;48.90;;;;;;5034180;28;19960;-74
2022/11/12 11:12:48;;;;;;;;;;;20.60;48.80;;;;;;5033965;28;20400;-73
2022/11/12 11:15:17;;;;;;;;;;;20.60;48.80;;;;;;5031863;28;19933;-74
2022/11/12 11:17:42;;;;;;;;;;;20.60;48.90;;;;;;5019249;28;19952;-73
2022/11/12 11:20:14;;;;;;;;;;;20.60;48.90;;;;;;5024043;28;19953;-73
2022/11/12 11:22:43;;;;;;;;;;;20.60;48.80;;;;;;5034459;28;19917;-73
2022/11/12 11:25:15;;;;;;;;;;;20.50;48.80;;;;;;5031292;28;19913;-73
2022/11/12 11:27:41;;;;;;;;;;;20.50;48.70;;;;;;5034813;28;19913;-73
2022/11/12 11:30:06;;;;;;;;;;;20.50;48.60;;;;;;5029225;28;19956;-74
2022/11/12 11:32:50;;;;;;;;;;;20.40;48.50;;;;;;5033250;28;20321;-73
2022/11/12 11:35:19;;;;;;;;;;;20.40;48.30;;;;;;5031843;28;19914;-77
2022/11/12 11:37:59;;;;;;;;;;;20.40;48.50;;;;;;5042484;28;19925;-80
2022/11/12 11:40:39;;;;;;;;;;;20.40;48.80;;;;;;5023593;28;19928;-72
2022/11/12 11:43:11;;;;;;;;;;;20.30;49.00;;;;;;5032641;28;19917;-73
2022/11/12 11:45:36;;;;;;;;;;;20.30;49.00;;;;;;5034553;28;20380;-72
2022/11/12 11:48:06;;;;;;;;;;;20.30;49.00;;;;;;5039632;28;19913;-73
2022/11/12 11:50:36;;;;;;;;;;;20.40;49.10;;;;;;5036486;28;19959;-72
2022/11/12 11:53:07;;;;;;;;;;;20.40;49.00;;;;;;5054739;28;19909;-72
2022/11/12 11:55:37;;;;;;;;;;;20.40;49.00;;;;;;5054772;28;20039;-73
2022/11/12 11:58:15;;;;;;;;;;;20.40;49.00;;;;;;5032323;28;19917;-73
2022/11/12 12:00:53;;;;;;;;;;;20.50;49.10;;;;;;5053679;28;19913;-73
2022/11/12 12:03:20;;;;;;;;;;;20.50;49.10;;;;;;5037037;28;19913;-73
2022/11/12 12:06:04;;;;;;;;;;;20.50;49.00;;;;;;5025902;28;20404;-73
2022/11/12 12:08:35;;;;;;;;;;;20.60;49.10;;;;;;5016803;28;19963;-74
2022/11/12 12:11:10;;;;;;;;;;;20.50;49.10;;;;;;5016732;28;19921;-73
2022/11/12 12:13:44;;;;;;;;;;;20.50;49.30;;;;;;5032378;28;20361;-72
2022/11/12 12:16:10;;;;;;;;;;;20.40;49.30;;;;;;5034402;28;19967;-73
2022/11/12 12:18:39;;;;;;;;;;;20.50;49.50;;;;;;5042478;28;19913;-73
2022/11/12 12:21:08;;;;;;;;;;;20.40;49.60;;;;;;5043979;28;19927;-72
2022/11/12 12:23:35;;;;;;;;;;;20.40;49.70;;;;;;5015034;28;19958;-74
2022/11/12 12:26:01;;;;;;;;;;;20.30;49.80;;;;;;5015606;28;19909;-74
2022/11/12 12:28:37;;;;;;;;;;;20.40;49.90;;;;;;5016670;28;19913;-73
2022/11/12 12:31:04;;;;;;;;;;;20.40;50.00;;;;;;5035505;28;20403;-73
2022/11/12 12:33:38;;;;;;;;;;;20.30;49.90;;;;;;5034813;28;19920;-72
2022/11/12 12:36:10;;;;;;;;;;;20.40;50.10;;;;;;5033934;28;20031;-73
2022/11/12 12:38:41;;;;;;;;;;;20.40;50.10;;;;;;5033514;28;19916;-73
2022/11/12 12:41:13;;;;;;;;;;;20.30;50.00;;;;;;5036227;28;19909;-73
2022/11/12 12:43:57;;;;;;;;;;;20.30;50.20;;;;;;5052101;28;20070;-73
2022/11/12 12:46:23;;;;;;;;;;;20.30;50.40;;;;;;5051797;28;19939;-72
2022/11/12 12:48:50;;;;;;;;;;;20.30;50.30;;;;;;5034479;28;20019;-74
2022/11/12 12:51:16;;;;;;;;;;;20.30;50.20;;;;;;5048206;28;19928;-73
2022/11/12 12:53:42;;;;;;;;;;;20.40;50.10;;;;;;5034454;28;19908;-74
2022/11/12 12:56:13;;;;;;;;;;;20.40;50.10;;;;;;5053729;28;20272;-74
2022/11/12 12:58:48;;;;;;;;;;;20.50;50.20;;;;;;5051814;28;19909;-73
2022/11/12 13:01:20;;;;;;;;;;;20.50;50.10;;;;;;5026977;28;19913;-74
2022/11/12 13:03:45;;;;;;;;;;;20.50;50.10;;;;;;5033522;28;20261;-74
2022/11/12 13:06:15;;;;;;;;;;;20.50;50.10;;;;;;5016188;28;19910;-74
2022/11/12 13:08:40;;;;;;;;;;;20.50;50.10;;;;;;5022896;28;20369;-74
2022/11/12 13:11:05;;;;;;;;;;;20.50;50.10;;;;;;5053590;28;20012;-73
2022/11/12 13:13:32;;;;;;;;;;;20.60;50.10;;;;;;5051646;28;19909;-74
2022/11/12 13:15:58;;;;;;;;;;;20.60;50.20;;;;;;5033706;28;20307;-72
2022/11/12 13:18:39;;;;;;;;;;;20.60;50.20;;;;;;5033858;28;20039;-73
2022/11/12 13:21:11;;;;;;;;;;;20.60;50.30;;;;;;5046351;28;19917;-73
2022/11/12 13:24:04;;;;;;;;;;;20.50;50.30;;;;;;5035011;28;20377;-74
2022/11/12 13:26:43;;;;;;;;;;;20.50;50.30;;;;;;5052020;28;19998;-73
2022/11/12 13:29:17;;;;;;;;;;;20.50;50.50;;;;;;5051134;28;19919;-73
2022/11/12 13:31:43;;;;;;;;;;;20.50;50.50;;;;;;5045547;28;20406;-73
2022/11/12 13:34:26;;;;;;;;;;;20.50;50.60;;;;;;5034029;28;20008;-74
2022/11/12 13:36:55;;;;;;;;;;;20.50;50.60;;;;;;5019113;28;19921;-74
2022/11/12 13:39:20;;;;;;;;;;;20.50;50.70;;;;;;5032851;28;19917;-74
2022/11/12 13:44:38;;;;;;;;;;;20.50;50.70;;;;;;5032348;28;19920;-73
2022/11/12 13:47:03;;;;;;;;;;;20.50;50.70;;;;;;5032799;28;19921;-72
2022/11/12 13:49:28;;;;;;;;;;;20.50;51.40;;;;;;5035847;28;19917;-73
2022/11/12 13:51:55;;;;;;;;;;;20.40;50.70;;;;;;5032715;28;19916;-73
2022/11/12 13:54:24;;;;;;;;;;;20.40;50.70;;;;;;5034680;28;20278;-73
2022/11/12 13:56:50;;;;;;;;;;;20.40;50.80;;;;;;5034274;28;19913;-74
2022/11/12 13:59:16;;;;;;;;;;;20.40;50.90;;;;;;5050913;28;19935;-74
2022/11/12 14:01:42;;;;;;;;;;;20.40;50.90;;;;;;5049261;28;19971;-73
2022/11/12 14:04:14;;;;;;;;;;;20.40;50.90;;;;;;5034299;28;19948;-73
2022/11/12 14:06:40;;;;;;;;;;;20.40;51.10;;;;;;5034540;28;19912;-72
2022/11/12 14:09:12;;;;;;;;;;;20.40;51.00;;;;;;5034349;28;19909;-72
2022/11/12 14:11:55;;;;;;;;;;;20.40;51.10;;;;;;5030037;28;19921;-74
2022/11/12 14:14:24;;;;;;;;;;;20.40;51.90;;;;;;5034155;28;19955;-74
2022/11/12 14:17:08;;;;;;;;;;;20.40;51.20;;;;;;5033713;28;19917;-74
2022/11/12 14:19:51;;;;;;;;;;;20.40;51.20;;;;;;5037807;28;19917;-74
2022/11/12 14:22:17;;;;;;;;;;;20.40;51.10;;;;;;5032394;28;19932;-74
2022/11/12 14:24:43;;;;;;;;;;;20.40;51.10;;;;;;5016897;28;19939;-74
2022/11/12 14:27:37;;;;;;;;;;;20.40;51.10;;;;;;5030536;28;19917;-74
2022/11/12 14:30:15;;;;;;;;;;;20.40;51.10;;;;;;5034390;28;19917;-73
2022/11/12 14:32:41;;;;;;;;;;;20.50;51.00;;;;;;5051387;28;19919;-74
2022/11/12 14:35:19;;;;;;;;;;;20.50;50.90;;;;;;5033680;28;19919;-74
2022/11/12 14:37:49;;;;;;;;;;;20.50;50.90;;;;;;5052124;28;19925;-73
2022/11/12 14:40:15;;;;;;;;;;;20.50;50.90;;;;;;5051117;28;20379;-73
2022/11/12 14:42:41;;;;;;;;;;;20.50;50.90;;;;;;5035534;28;19912;-74
2022/11/12 14:45:13;;;;;;;;;;;20.50;50.90;;;;;;5037646;28;19915;-73